Summit, NJ (07901)

9:30 AM EDT on May 06, 2015 (GMT -0400)
Bryant Avenue | | Change Station
CLOSE
Current Station
Personal Weather Station
Location: Springfield Township, NJ
Elevation: 161 ft
Nearby Weather Stations

Elev 161 ft 40.71 °N, 74.33 °W | Updated 1 minute ago

Overcast
Overcast
65.3 °F
Feels Like 65.3 °F
N
3.8
Wind Variable Wind from ENE
Gusts 5.4 mph

Today
High -- | Low -- °F
--% Chance of Precip.
Yesterday
High -- | Low -- °F
Precip. -- in
5:50 AM 7:58 PM
Waning Gibbous, 94% visible
Pressure 30.30 in
Visibility 10.0 miles
Clouds Overcast 7500 ft
Dew Point 47 °F
Humidity 52%
Rainfall 0.00 in
Snow Depth Not available.
UV 1 out of 12
Pollen 3.80 out of 12
Air Quality Not available.
Flu Activity Local Activity
METAR KMMU 061245Z 05005KT 10SM OVC075 17/08 A3030

More Conditions Fewer Conditions

Pressure 30.30 in
Visibility 10.0 miles
Clouds Overcast 7500 ft
Dew Point 47 °F
Humidity 52%
Rainfall 0.00 in
Snow Depth Not available.
UV 1 out of 12
Pollen 3.80 out of 12
Air Quality Not available.
Flu Activity Local Activity
METAR KMMU 061245Z 05005KT 10SM OVC075 17/08 A3030

More Conditions Fewer Conditions

10-Day Weather Forecast

Almanac

Astronomy

May. 06, 2015 Rise Set
Actual Time
Civil Twilight
Nautical Twilight
Astronomical Twilight
Moon
Length of Visible Light
Length of Day
Tomorrow will be .
, % of the Moon is Illuminated

Today's Extremes

State Highs State Lows

Community

WunderPhotos

Upload Photos

1,818,897 photos uploaded!

WunderBlogs® & News

Nearby

Air Quality

  Air Quality AQ Index Pollutant
Not available.

Snow Depth

Station Depth Elevation

Earthquake Activity

City Distance Mag. Time & Date
Minimum magnitude displayed is 2.5.

Coastal Water Temperatures

Place Temperature

Stations

Nearby Weather Stations

Station Location Temp. Windchill Dew Point Humidity Wind Precip. Elev Updated Type